sensor_id;sensor_type;location;lat;lon;timestamp;P1;durP1;ratioP1;P2;durP2;ratioP2
73557;SDS011;61829;53.286;10.434;2023-09-19T00:01:29;3.83;;;1.42;;
73557;SDS011;61829;53.286;10.434;2023-09-19T00:03:57;4.43;;;1.70;;
73557;SDS011;61829;53.286;10.434;2023-09-19T00:06:23;2.78;;;1.40;;
73557;SDS011;61829;53.286;10.434;2023-09-19T00:08:51;3.70;;;1.50;;
73557;SDS011;61829;53.286;10.434;2023-09-19T00:11:30;2.58;;;1.50;;
73557;SDS011;61829;53.286;10.434;2023-09-19T00:13:56;3.47;;;1.50;;
73557;SDS011;61829;53.286;10.434;2023-09-19T00:16:24;2.95;;;1.45;;
73557;SDS011;61829;53.286;10.434;2023-09-19T00:18:51;3.70;;;1.48;;
73557;SDS011;61829;53.286;10.434;2023-09-19T00:21:17;2.72;;;1.50;;
73557;SDS011;61829;53.286;10.434;2023-09-19T00:23:44;4.88;;;1.80;;
73557;SDS011;61829;53.286;10.434;2023-09-19T00:26:10;3.40;;;1.70;;
73557;SDS011;61829;53.286;10.434;2023-09-19T00:28:36;3.40;;;1.50;;
73557;SDS011;61829;53.286;10.434;2023-09-19T00:31:02;2.05;;;1.35;;
73557;SDS011;61829;53.286;10.434;2023-09-19T00:33:28;2.88;;;1.40;;
73557;SDS011;61829;53.286;10.434;2023-09-19T00:35:56;4.65;;;1.77;;
73557;SDS011;61829;53.286;10.434;2023-09-19T00:38:27;3.05;;;1.67;;
73557;SDS011;61829;53.286;10.434;2023-09-19T00:40:53;3.28;;;1.63;;
73557;SDS011;61829;53.286;10.434;2023-09-19T00:43:29;3.33;;;1.80;;
73557;SDS011;61829;53.286;10.434;2023-09-19T00:45:55;3.08;;;1.67;;
73557;SDS011;61829;53.286;10.434;2023-09-19T00:48:22;4.22;;;1.67;;
73557;SDS011;61829;53.286;10.434;2023-09-19T00:50:50;2.78;;;1.80;;
73557;SDS011;61829;53.286;10.434;2023-09-19T00:53:17;4.43;;;2.00;;
73557;SDS011;61829;53.286;10.434;2023-09-19T00:55:46;7.15;;;1.98;;
73557;SDS011;61829;53.286;10.434;2023-09-19T00:58:13;4.25;;;2.03;;
73557;SDS011;61829;53.286;10.434;2023-09-19T01:00:40;3.65;;;2.20;;
73557;SDS011;61829;53.286;10.434;2023-09-19T01:03:06;5.10;;;1.67;;
73557;SDS011;61829;53.286;10.434;2023-09-19T01:07:58;4.70;;;2.17;;
73557;SDS011;61829;53.286;10.434;2023-09-19T01:10:24;2.92;;;1.85;;
73557;SDS011;61829;53.286;10.434;2023-09-19T01:19:02;4.97;;;2.20;;
73557;SDS011;61829;53.286;10.434;2023-09-19T01:29:38;4.25;;;2.38;;
73557;SDS011;61829;53.286;10.434;2023-09-19T01:32:06;6.10;;;2.35;;
73557;SDS011;61829;53.286;10.434;2023-09-19T01:37:22;5.45;;;2.25;;
73557;SDS011;61829;53.286;10.434;2023-09-19T01:40:13;6.50;;;2.50;;
73557;SDS011;61829;53.286;10.434;2023-09-19T01:51:51;11.23;;;2.65;;
73557;SDS011;61829;53.286;10.434;2023-09-19T01:54:14;4.47;;;2.45;;
73557;SDS011;61829;53.286;10.434;2023-09-19T01:57:03;3.75;;;2.47;;
73557;SDS011;61829;53.286;10.434;2023-09-19T02:02:38;5.15;;;2.70;;
73557;SDS011;61829;53.286;10.434;2023-09-19T02:05:07;5.78;;;2.67;;
73557;SDS011;61829;53.286;10.434;2023-09-19T02:07:33;6.68;;;2.42;;
73557;SDS011;61829;53.286;10.434;2023-09-19T02:10:04;5.22;;;2.42;;
73557;SDS011;61829;53.286;10.434;2023-09-19T02:12:35;7.28;;;2.63;;
73557;SDS011;61829;53.286;10.434;2023-09-19T02:15:01;6.05;;;2.58;;
73557;SDS011;61829;53.286;10.434;2023-09-19T02:17:29;5.78;;;2.92;;
73557;SDS011;61829;53.286;10.434;2023-09-19T02:19:56;6.22;;;2.30;;
73557;SDS011;61829;53.286;10.434;2023-09-19T02:22:22;3.97;;;2.40;;
73557;SDS011;61829;53.286;10.434;2023-09-19T02:24:48;5.15;;;2.63;;
73557;SDS011;61829;53.286;10.434;2023-09-19T02:27:14;6.63;;;2.65;;
73557;SDS011;61829;53.286;10.434;2023-09-19T02:29:42;6.45;;;2.70;;
73557;SDS011;61829;53.286;10.434;2023-09-19T02:32:07;6.18;;;2.90;;
73557;SDS011;61829;53.286;10.434;2023-09-19T02:34:35;9.13;;;2.65;;
73557;SDS011;61829;53.286;10.434;2023-09-19T02:37:05;4.30;;;2.60;;
73557;SDS011;61829;53.286;10.434;2023-09-19T02:43:38;3.55;;;2.60;;
73557;SDS011;61829;53.286;10.434;2023-09-19T02:46:04;6.97;;;2.60;;
73557;SDS011;61829;53.286;10.434;2023-09-19T02:48:30;7.25;;;2.88;;
73557;SDS011;61829;53.286;10.434;2023-09-19T02:50:57;4.82;;;2.35;;
73557;SDS011;61829;53.286;10.434;2023-09-19T02:53:25;5.53;;;2.30;;
73557;SDS011;61829;53.286;10.434;2023-09-19T02:55:51;7.85;;;2.40;;
73557;SDS011;61829;53.286;10.434;2023-09-19T02:58:17;6.53;;;2.35;;
73557;SDS011;61829;53.286;10.434;2023-09-19T03:00:44;5.85;;;2.67;;
73557;SDS011;61829;53.286;10.434;2023-09-19T03:03:13;8.43;;;2.40;;
73557;SDS011;61829;53.286;10.434;2023-09-19T03:05:39;5.40;;;2.28;;
73557;SDS011;61829;53.286;10.434;2023-09-19T03:08:06;5.88;;;2.90;;
73557;SDS011;61829;53.286;10.434;2023-09-19T03:10:32;4.82;;;2.40;;
73557;SDS011;61829;53.286;10.434;2023-09-19T03:12:58;8.57;;;2.40;;
73557;SDS011;61829;53.286;10.434;2023-09-19T03:15:27;5.47;;;2.60;;
73557;SDS011;61829;53.286;10.434;2023-09-19T03:17:53;5.57;;;2.83;;
73557;SDS011;61829;53.286;10.434;2023-09-19T03:20:21;5.50;;;2.00;;
73557;SDS011;61829;53.286;10.434;2023-09-19T03:22:47;5.60;;;2.17;;
73557;SDS011;61829;53.286;10.434;2023-09-19T03:25:13;7.10;;;1.95;;
73557;SDS011;61829;53.286;10.434;2023-09-19T03:27:39;4.28;;;2.03;;
73557;SDS011;61829;53.286;10.434;2023-09-19T03:30:06;4.90;;;2.08;;
73557;SDS011;61829;53.286;10.434;2023-09-19T03:32:34;5.55;;;2.00;;
73557;SDS011;61829;53.286;10.434;2023-09-19T03:35:02;5.20;;;1.80;;
73557;SDS011;61829;53.286;10.434;2023-09-19T03:37:30;3.15;;;1.65;;
73557;SDS011;61829;53.286;10.434;2023-09-19T03:39:58;4.90;;;1.85;;
73557;SDS011;61829;53.286;10.434;2023-09-19T03:42:24;6.65;;;1.90;;
73557;SDS011;61829;53.286;10.434;2023-09-19T03:44:52;4.47;;;1.48;;
73557;SDS011;61829;53.286;10.434;2023-09-19T03:47:18;4.00;;;1.63;;
73557;SDS011;61829;53.286;10.434;2023-09-19T03:49:47;3.40;;;1.45;;
73557;SDS011;61829;53.286;10.434;2023-09-19T03:52:12;3.80;;;1.50;;
73557;SDS011;61829;53.286;10.434;2023-09-19T03:54:38;3.05;;;1.40;;
73557;SDS011;61829;53.286;10.434;2023-09-19T03:57:06;6.18;;;1.83;;
73557;SDS011;61829;53.286;10.434;2023-09-19T03:59:32;5.60;;;1.60;;
73557;SDS011;61829;53.286;10.434;2023-09-19T04:01:58;5.07;;;1.38;;
73557;SDS011;61829;53.286;10.434;2023-09-19T04:06:51;4.90;;;1.45;;
73557;SDS011;61829;53.286;10.434;2023-09-19T04:09:17;5.45;;;1.38;;
73557;SDS011;61829;53.286;10.434;2023-09-19T04:11:42;3.72;;;1.33;;
73557;SDS011;61829;53.286;10.434;2023-09-19T04:14:08;5.97;;;1.33;;
73557;SDS011;61829;53.286;10.434;2023-09-19T04:16:34;3.42;;;1.70;;
73557;SDS011;61829;53.286;10.434;2023-09-19T04:19:00;7.55;;;1.50;;
73557;SDS011;61829;53.286;10.434;2023-09-19T04:21:26;8.35;;;1.60;;
73557;SDS011;61829;53.286;10.434;2023-09-19T04:23:53;4.85;;;1.60;;
73557;SDS011;61829;53.286;10.434;2023-09-19T04:26:19;4.15;;;1.30;;
73557;SDS011;61829;53.286;10.434;2023-09-19T04:28:45;3.60;;;1.45;;
73557;SDS011;61829;53.286;10.434;2023-09-19T04:31:11;3.28;;;1.50;;
73557;SDS011;61829;53.286;10.434;2023-09-19T04:33:37;4.63;;;1.60;;
73557;SDS011;61829;53.286;10.434;2023-09-19T04:36:03;5.47;;;1.73;;
73557;SDS011;61829;53.286;10.434;2023-09-19T04:38:31;6.15;;;1.60;;
73557;SDS011;61829;53.286;10.434;2023-09-19T04:40:57;3.83;;;1.48;;
73557;SDS011;61829;53.286;10.434;2023-09-19T04:43:25;5.03;;;1.60;;
73557;SDS011;61829;53.286;10.434;2023-09-19T04:45:51;3.47;;;1.20;;
73557;SDS011;61829;53.286;10.434;2023-09-19T04:48:24;3.92;;;1.75;;
73557;SDS011;61829;53.286;10.434;2023-09-19T04:50:50;8.85;;;1.70;;
73557;SDS011;61829;53.286;10.434;2023-09-19T04:53:17;3.97;;;1.48;;
73557;SDS011;61829;53.286;10.434;2023-09-19T04:55:49;6.70;;;1.65;;
73557;SDS011;61829;53.286;10.434;2023-09-19T05:01:02;6.30;;;1.60;;
73557;SDS011;61829;53.286;10.434;2023-09-19T05:03:28;4.85;;;1.50;;
73557;SDS011;61829;53.286;10.434;2023-09-19T05:05:54;6.00;;;1.50;;
73557;SDS011;61829;53.286;10.434;2023-09-19T05:08:20;5.50;;;1.55;;
73557;SDS011;61829;53.286;10.434;2023-09-19T05:10:47;6.40;;;1.70;;
73557;SDS011;61829;53.286;10.434;2023-09-19T05:13:14;5.22;;;1.73;;
73557;SDS011;61829;53.286;10.434;2023-09-19T05:15:40;7.95;;;1.90;;
73557;SDS011;61829;53.286;10.434;2023-09-19T05:18:06;3.67;;;1.48;;
73557;SDS011;61829;53.286;10.434;2023-09-19T05:20:32;7.88;;;1.60;;
73557;SDS011;61829;53.286;10.434;2023-09-19T05:23:02;5.20;;;1.42;;
73557;SDS011;61829;53.286;10.434;2023-09-19T05:25:33;5.10;;;1.80;;
73557;SDS011;61829;53.286;10.434;2023-09-19T05:28:08;3.97;;;1.60;;
73557;SDS011;61829;53.286;10.434;2023-09-19T05:30:37;5.55;;;1.80;;
73557;SDS011;61829;53.286;10.434;2023-09-19T05:33:06;6.05;;;1.80;;
73557;SDS011;61829;53.286;10.434;2023-09-19T05:35:33;7.32;;;1.80;;
73557;SDS011;61829;53.286;10.434;2023-09-19T05:37:59;6.13;;;1.83;;
73557;SDS011;61829;53.286;10.434;2023-09-19T05:40:25;5.32;;;1.50;;
73557;SDS011;61829;53.286;10.434;2023-09-19T05:42:51;5.93;;;1.60;;
73557;SDS011;61829;53.286;10.434;2023-09-19T05:45:17;5.97;;;1.95;;
73557;SDS011;61829;53.286;10.434;2023-09-19T05:47:50;8.10;;;1.83;;
73557;SDS011;61829;53.286;10.434;2023-09-19T05:50:21;7.65;;;1.95;;
73557;SDS011;61829;53.286;10.434;2023-09-19T05:52:53;6.40;;;1.70;;
73557;SDS011;61829;53.286;10.434;2023-09-19T05:55:21;10.60;;;1.80;;
73557;SDS011;61829;53.286;10.434;2023-09-19T05:57:50;6.28;;;1.80;;
73557;SDS011;61829;53.286;10.434;2023-09-19T06:00:20;4.72;;;1.63;;
73557;SDS011;61829;53.286;10.434;2023-09-19T06:02:52;5.80;;;1.42;;
73557;SDS011;61829;53.286;10.434;2023-09-19T06:05:22;6.50;;;1.90;;
73557;SDS011;61829;53.286;10.434;2023-09-19T06:07:49;5.93;;;1.80;;
73557;SDS011;61829;53.286;10.434;2023-09-19T06:10:15;4.63;;;1.58;;
73557;SDS011;61829;53.286;10.434;2023-09-19T06:12:52;7.38;;;1.90;;
73557;SDS011;61829;53.286;10.434;2023-09-19T06:15:18;5.85;;;1.98;;
73557;SDS011;61829;53.286;10.434;2023-09-19T06:20:14;8.35;;;2.22;;
73557;SDS011;61829;53.286;10.434;2023-09-19T06:22:44;5.47;;;1.88;;
73557;SDS011;61829;53.286;10.434;2023-09-19T06:25:11;5.80;;;1.83;;
73557;SDS011;61829;53.286;10.434;2023-09-19T06:27:38;12.40;;;4.28;;
73557;SDS011;61829;53.286;10.434;2023-09-19T06:30:08;6.15;;;1.52;;
73557;SDS011;61829;53.286;10.434;2023-09-19T06:32:35;8.02;;;1.77;;
73557;SDS011;61829;53.286;10.434;2023-09-19T06:35:01;8.75;;;1.90;;
73557;SDS011;61829;53.286;10.434;2023-09-19T06:37:28;7.32;;;2.17;;
73557;SDS011;61829;53.286;10.434;2023-09-19T06:39:55;7.90;;;1.90;;
73557;SDS011;61829;53.286;10.434;2023-09-19T06:42:22;9.02;;;1.90;;
73557;SDS011;61829;53.286;10.434;2023-09-19T06:44:48;4.13;;;1.63;;
73557;SDS011;61829;53.286;10.434;2023-09-19T06:47:15;5.70;;;1.70;;
73557;SDS011;61829;53.286;10.434;2023-09-19T06:49:41;6.70;;;1.70;;
73557;SDS011;61829;53.286;10.434;2023-09-19T06:52:10;7.30;;;1.75;;
73557;SDS011;61829;53.286;10.434;2023-09-19T06:54:37;4.68;;;1.70;;
73557;SDS011;61829;53.286;10.434;2023-09-19T06:57:05;7.53;;;1.83;;
73557;SDS011;61829;53.286;10.434;2023-09-19T06:59:31;7.28;;;1.65;;
73557;SDS011;61829;53.286;10.434;2023-09-19T07:01:58;5.63;;;1.67;;
73557;SDS011;61829;53.286;10.434;2023-09-19T07:04:24;7.65;;;2.13;;
73557;SDS011;61829;53.286;10.434;2023-09-19T07:06:50;8.02;;;2.05;;
73557;SDS011;61829;53.286;10.434;2023-09-19T07:09:16;8.52;;;1.80;;
73557;SDS011;61829;53.286;10.434;2023-09-19T07:11:42;5.25;;;1.90;;
73557;SDS011;61829;53.286;10.434;2023-09-19T07:14:08;9.73;;;2.45;;
73557;SDS011;61829;53.286;10.434;2023-09-19T07:16:37;5.70;;;1.88;;
73557;SDS011;61829;53.286;10.434;2023-09-19T07:19:05;8.85;;;1.90;;
73557;SDS011;61829;53.286;10.434;2023-09-19T07:21:32;6.65;;;2.00;;
73557;SDS011;61829;53.286;10.434;2023-09-19T07:24:01;6.07;;;1.60;;
73557;SDS011;61829;53.286;10.434;2023-09-19T07:26:29;9.25;;;2.60;;
73557;SDS011;61829;53.286;10.434;2023-09-19T07:28:55;9.43;;;2.05;;
73557;SDS011;61829;53.286;10.434;2023-09-19T07:31:22;9.82;;;2.30;;
73557;SDS011;61829;53.286;10.434;2023-09-19T07:33:48;8.75;;;1.90;;
73557;SDS011;61829;53.286;10.434;2023-09-19T07:36:14;8.90;;;2.28;;
73557;SDS011;61829;53.286;10.434;2023-09-19T07:38:41;7.18;;;2.00;;
73557;SDS011;61829;53.286;10.434;2023-09-19T07:41:08;8.30;;;2.17;;
73557;SDS011;61829;53.286;10.434;2023-09-19T07:43:35;10.85;;;2.17;;
73557;SDS011;61829;53.286;10.434;2023-09-19T07:48:32;7.00;;;2.45;;
73557;SDS011;61829;53.286;10.434;2023-09-19T07:51:03;5.15;;;2.20;;
73557;SDS011;61829;53.286;10.434;2023-09-19T07:53:46;7.25;;;2.20;;
73557;SDS011;61829;53.286;10.434;2023-09-19T07:56:13;11.15;;;2.40;;
73557;SDS011;61829;53.286;10.434;2023-09-19T07:58:40;7.07;;;2.35;;
73557;SDS011;61829;53.286;10.434;2023-09-19T08:01:10;6.53;;;2.35;;
73557;SDS011;61829;53.286;10.434;2023-09-19T08:03:39;6.72;;;2.25;;
73557;SDS011;61829;53.286;10.434;2023-09-19T08:06:09;8.25;;;2.05;;
73557;SDS011;61829;53.286;10.434;2023-09-19T08:08:36;8.77;;;1.98;;
73557;SDS011;61829;53.286;10.434;2023-09-19T08:11:03;7.05;;;2.10;;
73557;SDS011;61829;53.286;10.434;2023-09-19T08:13:49;10.70;;;2.30;;
73557;SDS011;61829;53.286;10.434;2023-09-19T08:16:16;6.60;;;2.10;;
73557;SDS011;61829;53.286;10.434;2023-09-19T08:18:46;9.30;;;2.10;;
73557;SDS011;61829;53.286;10.434;2023-09-19T08:21:13;7.80;;;2.05;;
73557;SDS011;61829;53.286;10.434;2023-09-19T08:23:41;7.10;;;2.00;;
73557;SDS011;61829;53.286;10.434;2023-09-19T08:26:07;6.47;;;1.73;;
73557;SDS011;61829;53.286;10.434;2023-09-19T08:28:36;7.72;;;1.92;;
73557;SDS011;61829;53.286;10.434;2023-09-19T08:31:06;5.72;;;1.80;;
73557;SDS011;61829;53.286;10.434;2023-09-19T08:33:36;7.00;;;1.88;;
73557;SDS011;61829;53.286;10.434;2023-09-19T08:36:03;9.02;;;1.60;;
73557;SDS011;61829;53.286;10.434;2023-09-19T08:38:33;8.38;;;1.67;;
73557;SDS011;61829;53.286;10.434;2023-09-19T08:41:01;6.85;;;1.70;;
73557;SDS011;61829;53.286;10.434;2023-09-19T08:43:31;7.55;;;2.00;;
73557;SDS011;61829;53.286;10.434;2023-09-19T08:48:45;6.43;;;1.77;;
73557;SDS011;61829;53.286;10.434;2023-09-19T08:51:21;7.80;;;1.63;;
73557;SDS011;61829;53.286;10.434;2023-09-19T08:54:28;5.90;;;1.52;;
73557;SDS011;61829;53.286;10.434;2023-09-19T08:56:59;7.78;;;2.17;;
73557;SDS011;61829;53.286;10.434;2023-09-19T08:59:33;5.78;;;1.85;;
73557;SDS011;61829;53.286;10.434;2023-09-19T09:02:00;6.72;;;1.90;;
73557;SDS011;61829;53.286;10.434;2023-09-19T09:04:29;5.70;;;1.67;;
73557;SDS011;61829;53.286;10.434;2023-09-19T09:06:56;10.48;;;1.90;;
73557;SDS011;61829;53.286;10.434;2023-09-19T09:09:25;7.60;;;1.80;;
73557;SDS011;61829;53.286;10.434;2023-09-19T09:11:53;7.60;;;1.75;;
73557;SDS011;61829;53.286;10.434;2023-09-19T09:14:22;6.80;;;1.83;;
73557;SDS011;61829;53.286;10.434;2023-09-19T09:16:50;10.93;;;1.70;;
73557;SDS011;61829;53.286;10.434;2023-09-19T09:19:15;7.85;;;1.77;;
73557;SDS011;61829;53.286;10.434;2023-09-19T09:21:50;6.32;;;1.45;;
73557;SDS011;61829;53.286;10.434;2023-09-19T09:24:26;6.32;;;1.65;;
73557;SDS011;61829;53.286;10.434;2023-09-19T09:26:54;5.55;;;1.48;;
73557;SDS011;61829;53.286;10.434;2023-09-19T09:32:19;5.00;;;1.70;;
73557;SDS011;61829;53.286;10.434;2023-09-19T09:34:47;5.28;;;1.60;;
73557;SDS011;61829;53.286;10.434;2023-09-19T09:37:18;8.80;;;1.58;;
73557;SDS011;61829;53.286;10.434;2023-09-19T09:39:51;6.95;;;1.58;;
73557;SDS011;61829;53.286;10.434;2023-09-19T09:42:32;7.55;;;1.77;;
73557;SDS011;61829;53.286;10.434;2023-09-19T09:47:59;6.55;;;1.42;;
73557;SDS011;61829;53.286;10.434;2023-09-19T09:50:29;4.40;;;1.55;;
73557;SDS011;61829;53.286;10.434;2023-09-19T09:53:26;5.82;;;1.52;;
73557;SDS011;61829;53.286;10.434;2023-09-19T10:01:14;7.00;;;1.40;;
73557;SDS011;61829;53.286;10.434;2023-09-19T10:03:42;11.63;;;1.92;;
73557;SDS011;61829;53.286;10.434;2023-09-19T10:06:17;6.07;;;1.70;;
73557;SDS011;61829;53.286;10.434;2023-09-19T10:08:59;4.00;;;1.50;;
73557;SDS011;61829;53.286;10.434;2023-09-19T10:11:46;6.35;;;1.55;;
73557;SDS011;61829;53.286;10.434;2023-09-19T10:14:16;6.68;;;1.45;;
73557;SDS011;61829;53.286;10.434;2023-09-19T10:16:45;5.25;;;1.42;;
73557;SDS011;61829;53.286;10.434;2023-09-19T10:19:20;5.68;;;1.63;;
73557;SDS011;61829;53.286;10.434;2023-09-19T10:21:50;6.78;;;1.88;;
73557;SDS011;61829;53.286;10.434;2023-09-19T10:24:19;9.40;;;1.90;;
73557;SDS011;61829;53.286;10.434;2023-09-19T10:26:47;7.95;;;1.73;;
73557;SDS011;61829;53.286;10.434;2023-09-19T10:29:16;6.95;;;1.55;;
73557;SDS011;61829;53.286;10.434;2023-09-19T10:31:47;6.38;;;1.40;;
73557;SDS011;61829;53.286;10.434;2023-09-19T10:34:14;5.22;;;1.70;;
73557;SDS011;61829;53.286;10.434;2023-09-19T10:36:40;6.72;;;1.83;;
73557;SDS011;61829;53.286;10.434;2023-09-19T10:39:10;7.13;;;1.70;;
73557;SDS011;61829;53.286;10.434;2023-09-19T10:41:43;6.85;;;1.70;;
73557;SDS011;61829;53.286;10.434;2023-09-19T10:44:23;4.15;;;1.52;;
73557;SDS011;61829;53.286;10.434;2023-09-19T10:46:51;6.72;;;1.42;;
73557;SDS011;61829;53.286;10.434;2023-09-19T10:49:18;6.30;;;1.63;;
73557;SDS011;61829;53.286;10.434;2023-09-19T10:51:45;7.47;;;1.67;;
73557;SDS011;61829;53.286;10.434;2023-09-19T10:54:16;6.38;;;1.45;;
73557;SDS011;61829;53.286;10.434;2023-09-19T10:56:51;5.20;;;1.65;;
73557;SDS011;61829;53.286;10.434;2023-09-19T10:59:19;4.80;;;1.50;;
73557;SDS011;61829;53.286;10.434;2023-09-19T11:01:47;4.70;;;1.52;;
73557;SDS011;61829;53.286;10.434;2023-09-19T11:14:55;6.70;;;1.30;;
73557;SDS011;61829;53.286;10.434;2023-09-19T11:17:31;4.97;;;1.42;;
73557;SDS011;61829;53.286;10.434;2023-09-19T11:30:31;7.57;;;1.48;;
73557;SDS011;61829;53.286;10.434;2023-09-19T11:44:31;5.95;;;1.33;;
73557;SDS011;61829;53.286;10.434;2023-09-19T11:49:17;6.03;;;1.40;;
73557;SDS011;61829;53.286;10.434;2023-09-19T11:51:50;6.28;;;1.50;;
73557;SDS011;61829;53.286;10.434;2023-09-19T11:54:17;3.70;;;1.27;;
73557;SDS011;61829;53.286;10.434;2023-09-19T11:56:53;5.35;;;1.40;;
73557;SDS011;61829;53.286;10.434;2023-09-19T11:59:29;5.03;;;1.30;;
73557;SDS011;61829;53.286;10.434;2023-09-19T12:01:57;7.03;;;1.67;;
73557;SDS011;61829;53.286;10.434;2023-09-19T12:04:33;5.25;;;1.33;;
73557;SDS011;61829;53.286;10.434;2023-09-19T12:07:11;5.28;;;1.40;;
73557;SDS011;61829;53.286;10.434;2023-09-19T12:09:48;12.15;;;1.83;;
73557;SDS011;61829;53.286;10.434;2023-09-19T12:12:26;8.82;;;1.92;;
73557;SDS011;61829;53.286;10.434;2023-09-19T12:14:53;10.75;;;1.90;;
73557;SDS011;61829;53.286;10.434;2023-09-19T12:17:20;7.53;;;1.88;;
73557;SDS011;61829;53.286;10.434;2023-09-19T12:19:50;8.85;;;2.10;;
73557;SDS011;61829;53.286;10.434;2023-09-19T12:22:22;5.35;;;1.80;;
73557;SDS011;61829;53.286;10.434;2023-09-19T12:24:48;4.97;;;1.50;;
73557;SDS011;61829;53.286;10.434;2023-09-19T12:27:16;8.07;;;1.90;;
73557;SDS011;61829;53.286;10.434;2023-09-19T12:29:46;5.18;;;1.50;;
73557;SDS011;61829;53.286;10.434;2023-09-19T12:32:14;4.63;;;1.42;;
73557;SDS011;61829;53.286;10.434;2023-09-19T12:37:18;5.97;;;1.50;;
73557;SDS011;61829;53.286;10.434;2023-09-19T12:39:50;7.25;;;1.80;;
73557;SDS011;61829;53.286;10.434;2023-09-19T12:42:24;5.75;;;1.80;;
73557;SDS011;61829;53.286;10.434;2023-09-19T12:44:57;5.80;;;1.50;;
73557;SDS011;61829;53.286;10.434;2023-09-19T12:47:27;6.82;;;1.88;;
73557;SDS011;61829;53.286;10.434;2023-09-19T12:50:16;6.18;;;2.00;;
73557;SDS011;61829;53.286;10.434;2023-09-19T12:58:02;6.75;;;1.70;;
73557;SDS011;61829;53.286;10.434;2023-09-19T13:00:42;5.13;;;1.50;;
73557;SDS011;61829;53.286;10.434;2023-09-19T13:05:55;5.60;;;1.60;;
73557;SDS011;61829;53.286;10.434;2023-09-19T13:08:27;6.57;;;1.88;;
73557;SDS011;61829;53.286;10.434;2023-09-19T13:13:36;4.53;;;1.70;;
73557;SDS011;61829;53.286;10.434;2023-09-19T13:16:03;6.72;;;1.90;;
73557;SDS011;61829;53.286;10.434;2023-09-19T13:18:55;6.45;;;1.83;;
73557;SDS011;61829;53.286;10.434;2023-09-19T13:21:27;9.75;;;2.65;;
73557;SDS011;61829;53.286;10.434;2023-09-19T13:26:44;7.13;;;1.70;;
73557;SDS011;61829;53.286;10.434;2023-09-19T13:29:10;4.88;;;1.95;;
73557;SDS011;61829;53.286;10.434;2023-09-19T13:31:35;4.30;;;1.48;;
73557;SDS011;61829;53.286;10.434;2023-09-19T13:34:03;4.85;;;1.60;;
73557;SDS011;61829;53.286;10.434;2023-09-19T13:36:29;9.25;;;2.20;;
73557;SDS011;61829;53.286;10.434;2023-09-19T13:38:55;7.97;;;1.70;;
73557;SDS011;61829;53.286;10.434;2023-09-19T13:41:21;7.60;;;1.80;;
73557;SDS011;61829;53.286;10.434;2023-09-19T13:43:47;5.45;;;1.60;;
73557;SDS011;61829;53.286;10.434;2023-09-19T13:46:14;7.88;;;1.80;;
73557;SDS011;61829;53.286;10.434;2023-09-19T13:48:41;5.15;;;1.55;;
73557;SDS011;61829;53.286;10.434;2023-09-19T13:51:07;5.97;;;1.92;;
73557;SDS011;61829;53.286;10.434;2023-09-19T13:53:33;5.50;;;1.77;;
73557;SDS011;61829;53.286;10.434;2023-09-19T13:56:00;10.10;;;2.13;;
73557;SDS011;61829;53.286;10.434;2023-09-19T13:58:26;8.82;;;2.10;;
73557;SDS011;61829;53.286;10.434;2023-09-19T14:00:52;4.50;;;1.58;;
73557;SDS011;61829;53.286;10.434;2023-09-19T14:03:21;6.60;;;1.80;;
73557;SDS011;61829;53.286;10.434;2023-09-19T14:05:47;5.30;;;1.80;;
73557;SDS011;61829;53.286;10.434;2023-09-19T14:08:14;5.22;;;1.85;;
73557;SDS011;61829;53.286;10.434;2023-09-19T14:10:40;7.10;;;2.00;;
73557;SDS011;61829;53.286;10.434;2023-09-19T14:13:06;8.80;;;2.45;;
73557;SDS011;61829;53.286;10.434;2023-09-19T14:15:32;6.90;;;1.77;;
73557;SDS011;61829;53.286;10.434;2023-09-19T14:18:04;6.75;;;1.60;;
73557;SDS011;61829;53.286;10.434;2023-09-19T14:20:30;10.35;;;2.50;;
73557;SDS011;61829;53.286;10.434;2023-09-19T14:22:57;7.47;;;1.90;;
73557;SDS011;61829;53.286;10.434;2023-09-19T14:25:27;8.45;;;2.05;;
73557;SDS011;61829;53.286;10.434;2023-09-19T14:27:54;7.43;;;2.05;;
73557;SDS011;61829;53.286;10.434;2023-09-19T14:30:20;8.15;;;1.80;;
73557;SDS011;61829;53.286;10.434;2023-09-19T14:32:47;7.13;;;2.17;;
73557;SDS011;61829;53.286;10.434;2023-09-19T14:35:13;6.60;;;2.10;;
73557;SDS011;61829;53.286;10.434;2023-09-19T14:37:39;8.20;;;1.90;;
73557;SDS011;61829;53.286;10.434;2023-09-19T14:40:06;6.80;;;2.00;;
73557;SDS011;61829;53.286;10.434;2023-09-19T14:42:35;7.78;;;2.15;;
73557;SDS011;61829;53.286;10.434;2023-09-19T14:45:03;7.13;;;1.90;;
73557;SDS011;61829;53.286;10.434;2023-09-19T14:47:30;6.20;;;2.03;;
73557;SDS011;61829;53.286;10.434;2023-09-19T14:50:00;7.75;;;2.00;;
73557;SDS011;61829;53.286;10.434;2023-09-19T14:52:28;9.07;;;2.03;;
73557;SDS011;61829;53.286;10.434;2023-09-19T14:54:54;4.88;;;1.92;;
73557;SDS011;61829;53.286;10.434;2023-09-19T14:57:20;9.23;;;2.30;;
73557;SDS011;61829;53.286;10.434;2023-09-19T14:59:45;8.25;;;2.08;;
73557;SDS011;61829;53.286;10.434;2023-09-19T15:02:11;7.55;;;2.38;;
73557;SDS011;61829;53.286;10.434;2023-09-19T15:04:39;8.52;;;1.95;;
73557;SDS011;61829;53.286;10.434;2023-09-19T15:07:06;5.90;;;2.05;;
73557;SDS011;61829;53.286;10.434;2023-09-19T15:09:32;6.43;;;1.80;;
73557;SDS011;61829;53.286;10.434;2023-09-19T15:11:59;7.75;;;2.10;;
73557;SDS011;61829;53.286;10.434;2023-09-19T15:14:25;6.45;;;2.15;;
73557;SDS011;61829;53.286;10.434;2023-09-19T15:16:51;5.57;;;2.13;;
73557;SDS011;61829;53.286;10.434;2023-09-19T15:19:16;7.43;;;1.95;;
73557;SDS011;61829;53.286;10.434;2023-09-19T15:21:43;6.60;;;2.08;;
73557;SDS011;61829;53.286;10.434;2023-09-19T15:24:09;7.55;;;2.45;;
73557;SDS011;61829;53.286;10.434;2023-09-19T15:26:38;4.00;;;1.83;;
73557;SDS011;61829;53.286;10.434;2023-09-19T15:29:05;6.93;;;2.30;;
73557;SDS011;61829;53.286;10.434;2023-09-19T15:31:32;6.63;;;2.00;;
73557;SDS011;61829;53.286;10.434;2023-09-19T15:33:57;5.47;;;1.83;;
73557;SDS011;61829;53.286;10.434;2023-09-19T15:36:24;7.30;;;1.75;;
73557;SDS011;61829;53.286;10.434;2023-09-19T15:41:33;7.60;;;1.95;;
73557;SDS011;61829;53.286;10.434;2023-09-19T15:44:01;5.45;;;2.05;;
73557;SDS011;61829;53.286;10.434;2023-09-19T15:46:29;7.05;;;1.98;;
73557;SDS011;61829;53.286;10.434;2023-09-19T15:48:56;6.38;;;2.65;;
73557;SDS011;61829;53.286;10.434;2023-09-19T15:51:23;4.28;;;1.83;;
73557;SDS011;61829;53.286;10.434;2023-09-19T15:53:50;6.43;;;1.92;;
73557;SDS011;61829;53.286;10.434;2023-09-19T15:56:18;4.70;;;1.75;;
73557;SDS011;61829;53.286;10.434;2023-09-19T15:58:49;7.97;;;1.95;;
73557;SDS011;61829;53.286;10.434;2023-09-19T16:01:18;6.30;;;2.03;;
73557;SDS011;61829;53.286;10.434;2023-09-19T16:03:48;9.23;;;2.13;;
73557;SDS011;61829;53.286;10.434;2023-09-19T16:06:16;6.55;;;2.08;;
73557;SDS011;61829;53.286;10.434;2023-09-19T16:08:49;8.38;;;2.17;;
73557;SDS011;61829;53.286;10.434;2023-09-19T16:11:20;7.50;;;2.00;;
73557;SDS011;61829;53.286;10.434;2023-09-19T16:13:47;6.25;;;1.60;;
73557;SDS011;61829;53.286;10.434;2023-09-19T16:16:14;8.40;;;2.15;;
73557;SDS011;61829;53.286;10.434;2023-09-19T16:21:13;6.22;;;1.90;;
73557;SDS011;61829;53.286;10.434;2023-09-19T16:23:40;6.70;;;2.05;;
73557;SDS011;61829;53.286;10.434;2023-09-19T16:26:10;7.45;;;1.90;;
73557;SDS011;61829;53.286;10.434;2023-09-19T16:28:38;4.13;;;1.52;;
73557;SDS011;61829;53.286;10.434;2023-09-19T16:31:06;6.78;;;1.85;;
73557;SDS011;61829;53.286;10.434;2023-09-19T16:33:33;5.05;;;1.48;;
73557;SDS011;61829;53.286;10.434;2023-09-19T16:39:44;5.57;;;1.75;;
73557;SDS011;61829;53.286;10.434;2023-09-19T16:42:10;6.43;;;1.80;;